North Warren, Pennsylvania
Current Conditions -  °F | °C
As of 1:53 PM on Friday 28 Nov 2014 (Local Time) from KBFD Reporting Station
Broken Clouds Broken Clouds  
Wind Chill: 11°   Ceiling: 2800
Heat Index: 22°   Visibility: 10mi
Dew Point:   Wind: 10mph
Humidity: 58%   Direction: 270°W
Pressure: 30.13"   Gusts: 18mph
Location:  41.8164°N, 79.1025°W
Report Text: KBFD 281853Z AUTO 27009G16KT 10SM BKN028 M06/M13 A3013 RMK AO2 SLP231 T10561128
Loading
Personal Weather Stations






























Interactive Weather Map New forecast layout! Learn more

10-Day Weather Forecast

Advertisements
Track Severe Weather on mobile